sensor_id;sensor_type;location;lat;lon;timestamp;pressure;altitude;pressure_sealevel;temperature;humidity
8575;BME280;4325;42.520;27.448;2023-05-21T00:00:26;100723.13;;;18.12;96.00
8575;BME280;4325;42.520;27.448;2023-05-21T00:02:54;100730.63;;;18.20;94.88
8575;BME280;4325;42.520;27.448;2023-05-21T00:05:23;100726.25;;;18.19;93.95
8575;BME280;4325;42.520;27.448;2023-05-21T00:07:50;100725.91;;;18.21;93.47
8575;BME280;4325;42.520;27.448;2023-05-21T00:10:17;100718.56;;;18.16;93.16
8575;BME280;4325;42.520;27.448;2023-05-21T00:12:44;100723.44;;;18.11;92.52
8575;BME280;4325;42.520;27.448;2023-05-21T00:15:11;100711.88;;;18.09;92.83
8575;BME280;4325;42.520;27.448;2023-05-21T00:17:38;100725.38;;;18.02;93.18
8575;BME280;4325;42.520;27.448;2023-05-21T00:20:08;100715.28;;;17.97;93.44
8575;BME280;4325;42.520;27.448;2023-05-21T00:22:35;100716.38;;;17.96;94.40
8575;BME280;4325;42.520;27.448;2023-05-21T00:25:02;100714.63;;;18.00;94.56
8575;BME280;4325;42.520;27.448;2023-05-21T00:27:29;100709.25;;;18.04;95.33
8575;BME280;4325;42.520;27.448;2023-05-21T00:29:56;100702.91;;;18.03;95.78
8575;BME280;4325;42.520;27.448;2023-05-21T00:32:23;100699.31;;;18.11;95.53
8575;BME280;4325;42.520;27.448;2023-05-21T00:34:50;100698.69;;;18.14;93.92
8575;BME280;4325;42.520;27.448;2023-05-21T00:37:18;100697.88;;;18.14;93.94
8575;BME280;4325;42.520;27.448;2023-05-21T00:39:45;100698.34;;;18.16;93.56
8575;BME280;4325;42.520;27.448;2023-05-21T00:42:12;100694.13;;;18.18;93.37
8575;BME280;4325;42.520;27.448;2023-05-21T00:44:42;100693.47;;;18.13;94.73
8575;BME280;4325;42.520;27.448;2023-05-21T00:47:11;100686.09;;;18.08;94.93
8575;BME280;4325;42.520;27.448;2023-05-21T00:49:38;100685.63;;;18.06;95.21
8575;BME280;4325;42.520;27.448;2023-05-21T00:52:06;100681.38;;;18.00;96.06
8575;BME280;4325;42.520;27.448;2023-05-21T00:54:34;100680.56;;;17.91;96.50
8575;BME280;4325;42.520;27.448;2023-05-21T00:57:03;100676.28;;;17.85;97.10
8575;BME280;4325;42.520;27.448;2023-05-21T00:59:31;100684.25;;;17.78;97.15
8575;BME280;4325;42.520;27.448;2023-05-21T01:01:59;100683.72;;;17.67;98.33
8575;BME280;4325;42.520;27.448;2023-05-21T01:04:28;100676.03;;;17.56;99.40
8575;BME280;4325;42.520;27.448;2023-05-21T01:06:55;100670.00;;;17.54;99.66
8575;BME280;4325;42.520;27.448;2023-05-21T01:09:23;100668.34;;;17.53;99.43
8575;BME280;4325;42.520;27.448;2023-05-21T01:11:51;100657.56;;;17.51;99.20
8575;BME280;4325;42.520;27.448;2023-05-21T01:14:19;100659.34;;;17.47;98.13
8575;BME280;4325;42.520;27.448;2023-05-21T01:16:49;100655.84;;;17.33;98.85
8575;BME280;4325;42.520;27.448;2023-05-21T01:19:19;100654.41;;;17.36;98.22
8575;BME280;4325;42.520;27.448;2023-05-21T01:21:49;100653.97;;;17.42;98.08
8575;BME280;4325;42.520;27.448;2023-05-21T01:24:18;100645.31;;;17.44;97.68
8575;BME280;4325;42.520;27.448;2023-05-21T01:26:45;100638.47;;;17.41;98.68
8575;BME280;4325;42.520;27.448;2023-05-21T01:29:13;100647.59;;;17.42;98.85
8575;BME280;4325;42.520;27.448;2023-05-21T01:31:47;100636.88;;;17.49;99.22
8575;BME280;4325;42.520;27.448;2023-05-21T01:34:22;100638.16;;;17.43;99.42
8575;BME280;4325;42.520;27.448;2023-05-21T01:36:56;100640.75;;;17.39;100.00
8575;BME280;4325;42.520;27.448;2023-05-21T01:39:32;100631.63;;;17.39;100.00
8575;BME280;4325;42.520;27.448;2023-05-21T01:42:02;100633.91;;;17.37;100.00
8575;BME280;4325;42.520;27.448;2023-05-21T01:44:32;100632.44;;;17.39;99.74
8575;BME280;4325;42.520;27.448;2023-05-21T01:47:01;100627.75;;;17.40;99.32
8575;BME280;4325;42.520;27.448;2023-05-21T01:49:29;100614.84;;;17.35;98.75
8575;BME280;4325;42.520;27.448;2023-05-21T01:51:56;100615.50;;;17.41;98.28
8575;BME280;4325;42.520;27.448;2023-05-21T01:54:23;100609.84;;;17.46;98.43
8575;BME280;4325;42.520;27.448;2023-05-21T01:56:51;100609.09;;;17.54;98.44
8575;BME280;4325;42.520;27.448;2023-05-21T01:59:18;100611.22;;;17.57;99.42
8575;BME280;4325;42.520;27.448;2023-05-21T02:01:45;100611.38;;;17.60;99.67
8575;BME280;4325;42.520;27.448;2023-05-21T02:04:12;100610.56;;;17.60;99.80
8575;BME280;4325;42.520;27.448;2023-05-21T02:06:39;100617.56;;;17.57;100.00
8575;BME280;4325;42.520;27.448;2023-05-21T02:09:06;100616.75;;;17.57;100.00
8575;BME280;4325;42.520;27.448;2023-05-21T02:11:33;100616.63;;;17.62;100.00
8575;BME280;4325;42.520;27.448;2023-05-21T02:14:02;100623.91;;;17.58;100.00
8575;BME280;4325;42.520;27.448;2023-05-21T02:16:29;100620.47;;;17.52;100.00
8575;BME280;4325;42.520;27.448;2023-05-21T02:18:56;100627.06;;;17.43;100.00
8575;BME280;4325;42.520;27.448;2023-05-21T02:21:25;100628.19;;;17.33;100.00
8575;BME280;4325;42.520;27.448;2023-05-21T02:23:52;100634.19;;;17.27;100.00
8575;BME280;4325;42.520;27.448;2023-05-21T02:26:18;100625.19;;;17.21;100.00
8575;BME280;4325;42.520;27.448;2023-05-21T02:28:46;100626.28;;;17.11;100.00
8575;BME280;4325;42.520;27.448;2023-05-21T02:31:14;100628.38;;;17.06;100.00
8575;BME280;4325;42.520;27.448;2023-05-21T02:33:41;100632.88;;;16.93;100.00
8575;BME280;4325;42.520;27.448;2023-05-21T02:36:08;100626.66;;;16.88;100.00
8575;BME280;4325;42.520;27.448;2023-05-21T02:38:38;100628.91;;;16.86;100.00
8575;BME280;4325;42.520;27.448;2023-05-21T02:41:08;100634.25;;;16.82;100.00
8575;BME280;4325;42.520;27.448;2023-05-21T02:43:35;100644.94;;;16.75;100.00
8575;BME280;4325;42.520;27.448;2023-05-21T02:46:01;100648.31;;;16.72;100.00
8575;BME280;4325;42.520;27.448;2023-05-21T02:48:30;100643.94;;;16.71;100.00
8575;BME280;4325;42.520;27.448;2023-05-21T02:50:57;100653.97;;;16.67;100.00
8575;BME280;4325;42.520;27.448;2023-05-21T02:53:24;100635.53;;;16.54;100.00
8575;BME280;4325;42.520;27.448;2023-05-21T02:55:51;100647.56;;;16.58;100.00
8575;BME280;4325;42.520;27.448;2023-05-21T02:58:18;100650.84;;;16.60;100.00
8575;BME280;4325;42.520;27.448;2023-05-21T03:00:47;100648.72;;;16.57;100.00
8575;BME280;4325;42.520;27.448;2023-05-21T03:03:14;100659.78;;;16.57;100.00
8575;BME280;4325;42.520;27.448;2023-05-21T03:05:43;100655.25;;;16.61;100.00
8575;BME280;4325;42.520;27.448;2023-05-21T03:08:10;100659.34;;;16.64;100.00
8575;BME280;4325;42.520;27.448;2023-05-21T03:10:37;100665.75;;;16.73;100.00
8575;BME280;4325;42.520;27.448;2023-05-21T03:13:04;100664.16;;;16.80;100.00
8575;BME280;4325;42.520;27.448;2023-05-21T03:15:31;100670.06;;;16.87;100.00
8575;BME280;4325;42.520;27.448;2023-05-21T03:17:58;100668.16;;;16.96;100.00
8575;BME280;4325;42.520;27.448;2023-05-21T03:20:26;100674.09;;;17.03;100.00
8575;BME280;4325;42.520;27.448;2023-05-21T03:22:54;100672.19;;;17.12;100.00
8575;BME280;4325;42.520;27.448;2023-05-21T03:25:21;100663.28;;;17.15;100.00
8575;BME280;4325;42.520;27.448;2023-05-21T03:27:50;100667.03;;;17.20;100.00
8575;BME280;4325;42.520;27.448;2023-05-21T03:30:17;100673.06;;;17.22;100.00
8575;BME280;4325;42.520;27.448;2023-05-21T03:32:45;100670.28;;;17.22;100.00
8575;BME280;4325;42.520;27.448;2023-05-21T03:35:14;100672.22;;;17.21;100.00
8575;BME280;4325;42.520;27.448;2023-05-21T03:37:41;100668.84;;;17.24;100.00
8575;BME280;4325;42.520;27.448;2023-05-21T03:40:10;100668.84;;;17.24;100.00
8575;BME280;4325;42.520;27.448;2023-05-21T03:42:37;100679.28;;;17.27;100.00
8575;BME280;4325;42.520;27.448;2023-05-21T03:45:05;100678.31;;;17.32;100.00
8575;BME280;4325;42.520;27.448;2023-05-21T03:47:32;100673.13;;;17.30;100.00
8575;BME280;4325;42.520;27.448;2023-05-21T03:50:00;100672.81;;;17.40;100.00
8575;BME280;4325;42.520;27.448;2023-05-21T03:52:27;100675.09;;;17.38;100.00
8575;BME280;4325;42.520;27.448;2023-05-21T03:54:54;100677.56;;;17.40;100.00
8575;BME280;4325;42.520;27.448;2023-05-21T03:57:22;100671.22;;;17.48;100.00
8575;BME280;4325;42.520;27.448;2023-05-21T03:59:49;100682.53;;;17.60;100.00
8575;BME280;4325;42.520;27.448;2023-05-21T04:02:16;100681.75;;;17.68;100.00
8575;BME280;4325;42.520;27.448;2023-05-21T04:04:42;100673.19;;;17.78;100.00
8575;BME280;4325;42.520;27.448;2023-05-21T04:07:09;100676.78;;;17.87;98.91
8575;BME280;4325;42.520;27.448;2023-05-21T04:09:39;100679.25;;;17.97;98.72
8575;BME280;4325;42.520;27.448;2023-05-21T04:12:06;100675.53;;;18.10;97.27
8575;BME280;4325;42.520;27.448;2023-05-21T04:14:35;100671.31;;;18.21;96.09
8575;BME280;4325;42.520;27.448;2023-05-21T04:17:02;100672.13;;;18.30;94.78
8575;BME280;4325;42.520;27.448;2023-05-21T04:19:30;100671.97;;;18.35;93.29
8575;BME280;4325;42.520;27.448;2023-05-21T04:21:57;100668.63;;;18.47;92.14
8575;BME280;4325;42.520;27.448;2023-05-21T04:24:24;100680.03;;;18.54;92.17
8575;BME280;4325;42.520;27.448;2023-05-21T04:26:51;100674.31;;;18.68;91.35
8575;BME280;4325;42.520;27.448;2023-05-21T04:29:18;100673.31;;;18.81;88.62
8575;BME280;4325;42.520;27.448;2023-05-21T04:31:47;100676.38;;;18.96;87.65
8575;BME280;4325;42.520;27.448;2023-05-21T04:34:14;100681.25;;;19.08;85.18
8575;BME280;4325;42.520;27.448;2023-05-21T04:36:42;100681.41;;;19.20;84.15
8575;BME280;4325;42.520;27.448;2023-05-21T04:39:09;100680.91;;;19.27;84.38
8575;BME280;4325;42.520;27.448;2023-05-21T04:41:36;100683.63;;;19.35;89.58
8575;BME280;4325;42.520;27.448;2023-05-21T04:44:05;100680.59;;;19.37;93.80
8575;BME280;4325;42.520;27.448;2023-05-21T04:46:32;100682.84;;;19.43;96.78
8575;BME280;4325;42.520;27.448;2023-05-21T04:49:00;100673.84;;;19.46;96.74
8575;BME280;4325;42.520;27.448;2023-05-21T04:51:28;100670.06;;;19.51;96.20
8575;BME280;4325;42.520;27.448;2023-05-21T04:53:55;100676.75;;;19.58;95.77
8575;BME280;4325;42.520;27.448;2023-05-21T04:56:22;100671.63;;;19.69;94.33
8575;BME280;4325;42.520;27.448;2023-05-21T04:58:51;100662.31;;;19.73;93.20
8575;BME280;4325;42.520;27.448;2023-05-21T05:01:18;100665.19;;;19.86;91.61
8575;BME280;4325;42.520;27.448;2023-05-21T05:03:47;100661.78;;;20.01;89.78
8575;BME280;4325;42.520;27.448;2023-05-21T05:06:16;100679.06;;;20.15;88.90
8575;BME280;4325;42.520;27.448;2023-05-21T05:08:43;100668.88;;;20.19;88.68
8575;BME280;4325;42.520;27.448;2023-05-21T05:11:10;100672.44;;;20.28;88.32
8575;BME280;4325;42.520;27.448;2023-05-21T05:13:38;100672.31;;;20.45;87.34
8575;BME280;4325;42.520;27.448;2023-05-21T05:16:06;100661.59;;;20.56;83.31
8575;BME280;4325;42.520;27.448;2023-05-21T05:18:33;100656.09;;;20.68;82.65
8575;BME280;4325;42.520;27.448;2023-05-21T05:21:00;100667.28;;;20.80;77.11
8575;BME280;4325;42.520;27.448;2023-05-21T05:23:28;100681.09;;;20.88;76.35
8575;BME280;4325;42.520;27.448;2023-05-21T05:25:55;100678.25;;;20.97;76.55
8575;BME280;4325;42.520;27.448;2023-05-21T05:28:22;100675.53;;;21.09;74.20
8575;BME280;4325;42.520;27.448;2023-05-21T05:30:49;100675.22;;;21.23;75.43
8575;BME280;4325;42.520;27.448;2023-05-21T05:33:16;100676.41;;;21.34;72.99
8575;BME280;4325;42.520;27.448;2023-05-21T05:35:43;100683.84;;;21.42;70.47
8575;BME280;4325;42.520;27.448;2023-05-21T05:38:10;100680.97;;;21.50;71.15
8575;BME280;4325;42.520;27.448;2023-05-21T05:40:39;100679.00;;;21.63;69.92
8575;BME280;4325;42.520;27.448;2023-05-21T05:43:06;100687.38;;;21.75;69.85
8575;BME280;4325;42.520;27.448;2023-05-21T05:45:33;100689.84;;;21.89;67.82
8575;BME280;4325;42.520;27.448;2023-05-21T05:48:00;100680.41;;;21.81;67.01
8575;BME280;4325;42.520;27.448;2023-05-21T05:50:27;100696.25;;;21.89;67.02
8575;BME280;4325;42.520;27.448;2023-05-21T05:52:54;100697.88;;;21.90;67.93
8575;BME280;4325;42.520;27.448;2023-05-21T05:55:20;100685.97;;;21.81;72.19
8575;BME280;4325;42.520;27.448;2023-05-21T05:57:51;100680.88;;;21.83;74.62
8575;BME280;4325;42.520;27.448;2023-05-21T06:00:18;100684.47;;;21.71;67.09
8575;BME280;4325;42.520;27.448;2023-05-21T06:02:45;100692.38;;;21.82;68.31
8575;BME280;4325;42.520;27.448;2023-05-21T06:05:12;100698.44;;;21.96;65.58
8575;BME280;4325;42.520;27.448;2023-05-21T06:07:39;100701.34;;;22.11;64.01
8575;BME280;4325;42.520;27.448;2023-05-21T06:10:07;100707.13;;;22.30;62.45
8575;BME280;4325;42.520;27.448;2023-05-21T06:12:34;100698.28;;;22.41;60.05
8575;BME280;4325;42.520;27.448;2023-05-21T06:15:03;100697.91;;;22.54;59.88
8575;BME280;4325;42.520;27.448;2023-05-21T06:17:30;100702.91;;;22.61;59.88
8575;BME280;4325;42.520;27.448;2023-05-21T06:19:58;100707.53;;;22.69;59.32
8575;BME280;4325;42.520;27.448;2023-05-21T06:22:24;100697.56;;;22.68;58.25
8575;BME280;4325;42.520;27.448;2023-05-21T06:24:51;100698.69;;;22.79;58.13
8575;BME280;4325;42.520;27.448;2023-05-21T06:27:18;100712.78;;;22.98;57.76
8575;BME280;4325;42.520;27.448;2023-05-21T06:29:45;100702.31;;;23.23;57.27
8575;BME280;4325;42.520;27.448;2023-05-21T06:32:13;100710.97;;;23.45;55.35
8575;BME280;4325;42.520;27.448;2023-05-21T06:34:40;100709.16;;;23.69;56.07
8575;BME280;4325;42.520;27.448;2023-05-21T06:37:07;100707.97;;;23.85;55.02
8575;BME280;4325;42.520;27.448;2023-05-21T06:39:34;100697.25;;;24.03;53.34
8575;BME280;4325;42.520;27.448;2023-05-21T06:42:01;100700.63;;;24.08;52.25
8575;BME280;4325;42.520;27.448;2023-05-21T06:44:28;100697.44;;;24.10;52.45
8575;BME280;4325;42.520;27.448;2023-05-21T06:46:55;100685.97;;;24.15;52.69
8575;BME280;4325;42.520;27.448;2023-05-21T06:49:23;100688.16;;;24.21;52.53
8575;BME280;4325;42.520;27.448;2023-05-21T06:51:51;100693.53;;;24.30;51.52
8575;BME280;4325;42.520;27.448;2023-05-21T06:54:17;100690.94;;;24.21;52.27
8575;BME280;4325;42.520;27.448;2023-05-21T06:56:44;100690.94;;;24.06;50.06
8575;BME280;4325;42.520;27.448;2023-05-21T06:59:11;100693.84;;;23.94;51.05
8575;BME280;4325;42.520;27.448;2023-05-21T07:01:38;100693.22;;;23.85;51.13
8575;BME280;4325;42.520;27.448;2023-05-21T07:04:06;100689.97;;;23.67;51.12
8575;BME280;4325;42.520;27.448;2023-05-21T07:06:35;100692.03;;;23.54;53.53
8575;BME280;4325;42.520;27.448;2023-05-21T07:09:02;100696.28;;;23.48;52.92
8575;BME280;4325;42.520;27.448;2023-05-21T07:11:30;100696.19;;;23.60;53.08
8575;BME280;4325;42.520;27.448;2023-05-21T07:13:57;100683.34;;;24.06;51.85
8575;BME280;4325;42.520;27.448;2023-05-21T07:16:26;100682.34;;;24.30;51.63
8575;BME280;4325;42.520;27.448;2023-05-21T07:18:53;100692.69;;;24.45;51.66
8575;BME280;4325;42.520;27.448;2023-05-21T07:21:20;100677.22;;;24.70;51.77
8575;BME280;4325;42.520;27.448;2023-05-21T07:23:48;100689.03;;;24.99;49.75
8575;BME280;4325;42.520;27.448;2023-05-21T07:26:15;100684.16;;;25.15;50.63
8575;BME280;4325;42.520;27.448;2023-05-21T07:28:42;100685.50;;;25.21;50.88
8575;BME280;4325;42.520;27.448;2023-05-21T07:31:09;100680.56;;;25.56;49.96
8575;BME280;4325;42.520;27.448;2023-05-21T07:33:37;100676.53;;;26.02;49.08
8575;BME280;4325;42.520;27.448;2023-05-21T07:36:04;100681.06;;;26.37;48.47
8575;BME280;4325;42.520;27.448;2023-05-21T07:38:32;100673.19;;;26.46;47.85
8575;BME280;4325;42.520;27.448;2023-05-21T07:41:00;100689.25;;;26.45;47.03
8575;BME280;4325;42.520;27.448;2023-05-21T07:43:27;100681.72;;;26.27;46.30
8575;BME280;4325;42.520;27.448;2023-05-21T07:45:54;100688.47;;;26.22;47.11
8575;BME280;4325;42.520;27.448;2023-05-21T07:48:21;100683.19;;;25.94;47.59
8575;BME280;4325;42.520;27.448;2023-05-21T07:50:48;100687.00;;;26.32;47.51
8575;BME280;4325;42.520;27.448;2023-05-21T07:53:17;100682.28;;;26.95;46.66
8575;BME280;4325;42.520;27.448;2023-05-21T07:55:45;100684.03;;;27.43;45.19
8575;BME280;4325;42.520;27.448;2023-05-21T07:58:15;100677.34;;;28.02;43.30
8575;BME280;4325;42.520;27.448;2023-05-21T08:00:44;100673.59;;;28.42;42.22
8575;BME280;4325;42.520;27.448;2023-05-21T08:03:13;100681.06;;;28.78;41.39
8575;BME280;4325;42.520;27.448;2023-05-21T08:05:41;100686.44;;;29.15;40.67
8575;BME280;4325;42.520;27.448;2023-05-21T08:08:10;100678.84;;;29.37;40.18
8575;BME280;4325;42.520;27.448;2023-05-21T08:10:37;100693.78;;;29.37;38.54
8575;BME280;4325;42.520;27.448;2023-05-21T08:13:04;100690.94;;;29.48;38.48
8575;BME280;4325;42.520;27.448;2023-05-21T08:15:32;100698.22;;;29.42;38.54
8575;BME280;4325;42.520;27.448;2023-05-21T08:17:59;100702.25;;;29.48;38.73
8575;BME280;4325;42.520;27.448;2023-05-21T08:20:26;100697.41;;;29.56;38.95
8575;BME280;4325;42.520;27.448;2023-05-21T08:22:55;100703.06;;;29.52;38.91
8575;BME280;4325;42.520;27.448;2023-05-21T08:25:22;100700.94;;;29.17;39.26
8575;BME280;4325;42.520;27.448;2023-05-21T08:27:49;100705.19;;;28.69;40.11
8575;BME280;4325;42.520;27.448;2023-05-21T08:30:16;100696.88;;;28.36;40.40
8575;BME280;4325;42.520;27.448;2023-05-21T08:32:45;100696.88;;;28.32;40.47
8575;BME280;4325;42.520;27.448;2023-05-21T08:35:12;100694.38;;;28.20;40.18
8575;BME280;4325;42.520;27.448;2023-05-21T08:37:39;100701.16;;;28.12;40.73
8575;BME280;4325;42.520;27.448;2023-05-21T08:40:07;100712.81;;;28.14;40.72
8575;BME280;4325;42.520;27.448;2023-05-21T08:42:39;100709.28;;;28.21;41.11
8575;BME280;4325;42.520;27.448;2023-05-21T08:45:10;100707.97;;;28.11;41.06
8575;BME280;4325;42.520;27.448;2023-05-21T08:47:40;100704.03;;;28.19;41.32
8575;BME280;4325;42.520;27.448;2023-05-21T08:50:11;100704.16;;;28.37;41.17
8575;BME280;4325;42.520;27.448;2023-05-21T08:52:38;100709.19;;;28.64;40.66
8575;BME280;4325;42.520;27.448;2023-05-21T08:55:06;100702.06;;;28.95;40.04
8575;BME280;4325;42.520;27.448;2023-05-21T08:57:33;100706.19;;;29.19;39.99
8575;BME280;4325;42.520;27.448;2023-05-21T09:00:01;100698.59;;;29.40;38.92
8575;BME280;4325;42.520;27.448;2023-05-21T09:02:32;100709.97;;;29.79;39.22
8575;BME280;4325;42.520;27.448;2023-05-21T09:04:59;100706.34;;;29.96;38.60
8575;BME280;4325;42.520;27.448;2023-05-21T09:07:30;100707.53;;;30.17;37.58
8575;BME280;4325;42.520;27.448;2023-05-21T09:10:02;100709.56;;;30.27;37.16
8575;BME280;4325;42.520;27.448;2023-05-21T09:12:30;100713.56;;;30.33;37.58
8575;BME280;4325;42.520;27.448;2023-05-21T09:14:58;100710.34;;;30.31;37.00
8575;BME280;4325;42.520;27.448;2023-05-21T09:17:25;100707.81;;;30.86;36.04
8575;BME280;4325;42.520;27.448;2023-05-21T09:20:09;100716.97;;;32.76;33.22
8575;BME280;4325;42.520;27.448;2023-05-21T09:22:40;100706.44;;;34.60;30.51
8575;BME280;4325;42.520;27.448;2023-05-21T09:25:08;100701.69;;;35.84;28.95
8575;BME280;4325;42.520;27.448;2023-05-21T09:27:36;100713.19;;;35.96;28.64
8575;BME280;4325;42.520;27.448;2023-05-21T09:30:04;100726.19;;;35.97;28.01
8575;BME280;4325;42.520;27.448;2023-05-21T09:32:34;100717.66;;;37.03;27.21
8575;BME280;4325;42.520;27.448;2023-05-21T09:35:09;100720.84;;;39.00;25.18
8575;BME280;4325;42.520;27.448;2023-05-21T09:37:36;100721.41;;;41.26;23.11
8575;BME280;4325;42.520;27.448;2023-05-21T09:40:13;100720.97;;;42.50;21.58
8575;BME280;4325;42.520;27.448;2023-05-21T09:42:41;100713.47;;;42.52;20.87
8575;BME280;4325;42.520;27.448;2023-05-21T09:45:09;100722.22;;;41.27;21.88
8575;BME280;4325;42.520;27.448;2023-05-21T09:47:40;100722.41;;;41.74;21.54
8575;BME280;4325;42.520;27.448;2023-05-21T09:50:09;100730.75;;;40.67;22.65
8575;BME280;4325;42.520;27.448;2023-05-21T09:52:36;100722.25;;;39.78;23.41
8575;BME280;4325;42.520;27.448;2023-05-21T09:55:03;100724.31;;;40.36;23.25
8575;BME280;4325;42.520;27.448;2023-05-21T09:57:32;100717.16;;;37.71;24.40
8575;BME280;4325;42.520;27.448;2023-05-21T09:59:59;100717.56;;;36.01;27.01
8575;BME280;4325;42.520;27.448;2023-05-21T10:02:26;100722.00;;;34.75;28.29
8575;BME280;4325;42.520;27.448;2023-05-21T10:04:55;100715.16;;;34.72;28.69
8575;BME280;4325;42.520;27.448;2023-05-21T10:07:22;100720.34;;;35.17;29.04
8575;BME280;4325;42.520;27.448;2023-05-21T10:09:52;100708.88;;;35.56;27.82
8575;BME280;4325;42.520;27.448;2023-05-21T10:12:22;100709.91;;;35.46;28.65
8575;BME280;4325;42.520;27.448;2023-05-21T10:14:53;100711.56;;;35.27;29.36
8575;BME280;4325;42.520;27.448;2023-05-21T10:17:23;100706.94;;;35.33;28.83
8575;BME280;4325;42.520;27.448;2023-05-21T10:19:51;100719.84;;;35.22;29.37
8575;BME280;4325;42.520;27.448;2023-05-21T10:22:19;100707.72;;;36.34;28.31
8575;BME280;4325;42.520;27.448;2023-05-21T10:24:48;100710.78;;;37.54;27.41
8575;BME280;4325;42.520;27.448;2023-05-21T10:27:16;100703.22;;;39.23;25.70
8575;BME280;4325;42.520;27.448;2023-05-21T10:29:44;100702.34;;;40.42;24.44
8575;BME280;4325;42.520;27.448;2023-05-21T10:32:14;100712.34;;;41.19;22.93
8575;BME280;4325;42.520;27.448;2023-05-21T10:34:42;100707.56;;;41.76;22.39
8575;BME280;4325;42.520;27.448;2023-05-21T10:37:11;100709.81;;;41.63;21.96
8575;BME280;4325;42.520;27.448;2023-05-21T10:39:38;100705.34;;;41.11;22.43
8575;BME280;4325;42.520;27.448;2023-05-21T10:42:16;100701.44;;;41.83;22.32
8575;BME280;4325;42.520;27.448;2023-05-21T10:44:56;100704.19;;;42.01;21.61
8575;BME280;4325;42.520;27.448;2023-05-21T10:47:48;100705.72;;;41.45;22.24
8575;BME280;4325;42.520;27.448;2023-05-21T10:50:42;100697.22;;;41.69;21.95
8575;BME280;4325;42.520;27.448;2023-05-21T10:53:16;100686.75;;;42.28;21.87
8575;BME280;4325;42.520;27.448;2023-05-21T10:55:55;100697.13;;;42.35;20.74
8575;BME280;4325;42.520;27.448;2023-05-21T10:58:49;100701.03;;;42.99;20.88
8575;BME280;4325;42.520;27.448;2023-05-21T11:01:20;100705.94;;;43.08;20.70
8575;BME280;4325;42.520;27.448;2023-05-21T11:03:49;100694.56;;;44.78;19.70
8575;BME280;4325;42.520;27.448;2023-05-21T11:06:22;100705.47;;;45.46;18.79
8575;BME280;4325;42.520;27.448;2023-05-21T11:08:51;100705.13;;;46.06;18.22
8575;BME280;4325;42.520;27.448;2023-05-21T11:11:49;100698.34;;;45.72;18.22
8575;BME280;4325;42.520;27.448;2023-05-21T11:14:26;100705.81;;;45.90;18.42
8575;BME280;4325;42.520;27.448;2023-05-21T11:16:56;100706.25;;;46.79;17.89
8575;BME280;4325;42.520;27.448;2023-05-21T11:19:33;100694.06;;;46.58;17.70
8575;BME280;4325;42.520;27.448;2023-05-21T11:22:04;100693.66;;;46.28;18.01
8575;BME280;4325;42.520;27.448;2023-05-21T11:24:32;100704.97;;;46.85;17.77
8575;BME280;4325;42.520;27.448;2023-05-21T11:27:03;100696.28;;;46.26;17.83
8575;BME280;4325;42.520;27.448;2023-05-21T11:29:41;100689.06;;;44.80;18.82
8575;BME280;4325;42.520;27.448;2023-05-21T11:32:10;100686.63;;;43.14;20.31
8575;BME280;4325;42.520;27.448;2023-05-21T11:34:40;100683.13;;;42.81;21.03
8575;BME280;4325;42.520;27.448;2023-05-21T11:37:27;100681.03;;;42.66;21.16
8575;BME280;4325;42.520;27.448;2023-05-21T11:39:56;100680.00;;;43.08;20.67
8575;BME280;4325;42.520;27.448;2023-05-21T11:42:30;100676.56;;;43.53;20.00
8575;BME280;4325;42.520;27.448;2023-05-21T11:44:58;100677.00;;;43.46;20.05
8575;BME280;4325;42.520;27.448;2023-05-21T11:47:26;100669.41;;;44.38;20.01
8575;BME280;4325;42.520;27.448;2023-05-21T11:49:56;100665.06;;;44.08;20.01
8575;BME280;4325;42.520;27.448;2023-05-21T11:52:24;100671.59;;;43.88;19.40
8575;BME280;4325;42.520;27.448;2023-05-21T11:54:52;100668.69;;;42.51;21.11
8575;BME280;4325;42.520;27.448;2023-05-21T11:57:22;100678.44;;;41.83;22.05
8575;BME280;4325;42.520;27.448;2023-05-21T11:59:51;100661.69;;;41.39;22.06
8575;BME280;4325;42.520;27.448;2023-05-21T12:02:19;100663.19;;;41.17;22.62
8575;BME280;4325;42.520;27.448;2023-05-21T12:04:47;100666.00;;;42.00;21.68
8575;BME280;4325;42.520;27.448;2023-05-21T12:07:17;100655.31;;;41.68;21.46
8575;BME280;4325;42.520;27.448;2023-05-21T12:09:46;100651.00;;;40.44;22.64
8575;BME280;4325;42.520;27.448;2023-05-21T12:12:14;100650.91;;;39.80;23.55
8575;BME280;4325;42.520;27.448;2023-05-21T12:14:43;100651.00;;;40.44;23.05
8575;BME280;4325;42.520;27.448;2023-05-21T12:17:10;100644.91;;;42.27;22.02
8575;BME280;4325;42.520;27.448;2023-05-21T12:19:39;100644.69;;;42.84;20.75
8575;BME280;4325;42.520;27.448;2023-05-21T12:22:06;100649.56;;;41.68;21.40
8575;BME280;4325;42.520;27.448;2023-05-21T12:24:36;100656.94;;;39.12;23.39
8575;BME280;4325;42.520;27.448;2023-05-21T12:27:04;100642.41;;;37.22;25.55
8575;BME280;4325;42.520;27.448;2023-05-21T12:29:35;100648.81;;;35.83;27.45
8575;BME280;4325;42.520;27.448;2023-05-21T12:32:03;100641.97;;;34.53;29.34
8575;BME280;4325;42.520;27.448;2023-05-21T12:34:38;100652.69;;;33.26;31.36
8575;BME280;4325;42.520;27.448;2023-05-21T12:37:06;100651.53;;;32.19;33.01
8575;BME280;4325;42.520;27.448;2023-05-21T12:39:38;100649.59;;;31.02;35.07
8575;BME280;4325;42.520;27.448;2023-05-21T12:42:06;100650.22;;;30.27;37.27
8575;BME280;4325;42.520;27.448;2023-05-21T12:44:33;100652.69;;;29.68;38.56
8575;BME280;4325;42.520;27.448;2023-05-21T12:47:00;100655.47;;;29.22;39.84
8575;BME280;4325;42.520;27.448;2023-05-21T12:49:34;100650.50;;;28.95;41.16
8575;BME280;4325;42.520;27.448;2023-05-21T12:52:08;100652.03;;;28.64;42.36
8575;BME280;4325;42.520;27.448;2023-05-21T12:54:36;100653.84;;;28.39;43.06
8575;BME280;4325;42.520;27.448;2023-05-21T12:57:13;100640.47;;;28.22;43.48
8575;BME280;4325;42.520;27.448;2023-05-21T12:59:46;100644.81;;;28.05;44.45
8575;BME280;4325;42.520;27.448;2023-05-21T13:02:19;100644.19;;;27.82;45.51
8575;BME280;4325;42.520;27.448;2023-05-21T13:04:46;100643.25;;;27.64;46.75